createdAt,value
2022-10-09T00:01:28.484Z,4.88
2022-10-09T00:03:56.635Z,5.30
2022-10-09T00:06:31.887Z,5.32
2022-10-09T00:08:59.513Z,5.05
2022-10-09T00:11:27.317Z,5.55
2022-10-09T00:13:54.834Z,5.43
2022-10-09T00:16:22.265Z,5.43
2022-10-09T00:18:49.323Z,5.43
2022-10-09T00:21:26.009Z,5.70
2022-10-09T00:23:54.590Z,5.15
2022-10-09T00:26:21.911Z,5.22
2022-10-09T00:28:48.894Z,5.38
2022-10-09T00:31:15.954Z,5.80
2022-10-09T00:33:42.838Z,6.35
2022-10-09T00:36:14.823Z,5.97
2022-10-09T00:38:41.916Z,6.70
2022-10-09T00:41:08.988Z,6.07
2022-10-09T00:43:47.592Z,6.47
2022-10-09T00:46:28.190Z,6.28
2022-10-09T00:49:15.172Z,6.70
2022-10-09T00:51:41.995Z,6.47
2022-10-09T00:54:09.881Z,6.05
2022-10-09T00:56:36.509Z,6.30
2022-10-09T00:59:04.134Z,6.05
2022-10-09T01:01:30.741Z,6.35
2022-10-09T01:03:57.371Z,6.38
2022-10-09T01:06:58.994Z,5.45
2022-10-09T01:09:48.684Z,5.88
2022-10-09T01:12:30.278Z,4.75
2022-10-09T01:15:04.355Z,5.45
2022-10-09T01:18:04.492Z,5.82
2022-10-09T01:20:50.101Z,5.32
2022-10-09T01:23:53.225Z,4.60
2022-10-09T01:26:45.896Z,4.20
2022-10-09T01:29:12.560Z,4.73
2022-10-09T01:31:43.530Z,5.10
2022-10-09T01:34:11.643Z,4.97
2022-10-09T01:36:38.268Z,5.05
2022-10-09T01:39:05.194Z,5.05
2022-10-09T01:41:31.733Z,4.60
2022-10-09T01:43:58.290Z,5.55
2022-10-09T01:46:32.264Z,4.93
2022-10-09T01:49:03.451Z,5.10
2022-10-09T01:51:32.628Z,5.13
2022-10-09T01:54:00.706Z,4.88
2022-10-09T01:56:27.272Z,5.05
2022-10-09T01:58:58.554Z,5.45
2022-10-09T02:01:30.439Z,5.20
2022-10-09T02:03:58.733Z,4.95
2022-10-09T02:06:25.392Z,5.10
2022-10-09T02:08:52.531Z,4.70
2022-10-09T02:11:19.139Z,5.68
2022-10-09T02:13:46.823Z,5.35
2022-10-09T02:16:19.923Z,5.15
2022-10-09T02:21:17.350Z,4.82
2022-10-09T02:23:44.093Z,5.18
2022-10-09T02:26:10.810Z,5.53
2022-10-09T02:28:37.672Z,5.00
2022-10-09T02:31:11.621Z,5.28
2022-10-09T02:33:38.295Z,4.90
2022-10-09T02:36:04.930Z,4.78
2022-10-09T02:38:31.497Z,5.38
2022-10-09T02:40:59.643Z,6.13
2022-10-09T02:43:26.326Z,6.35
2022-10-09T02:45:52.989Z,6.30
2022-10-09T02:48:20.129Z,6.05
2022-10-09T02:50:46.704Z,6.90
2022-10-09T02:53:13.294Z,6.55
2022-10-09T02:55:40.501Z,6.32
2022-10-09T02:58:07.089Z,6.82
2022-10-09T03:00:33.671Z,6.70
2022-10-09T03:03:00.313Z,6.72
2022-10-09T03:05:27.004Z,7.90
2022-10-09T03:07:53.748Z,8.48
2022-10-09T03:10:20.989Z,9.68
2022-10-09T03:12:47.939Z,8.65
2022-10-09T03:15:14.919Z,7.78
2022-10-09T03:17:41.528Z,7.28
2022-10-09T03:20:08.576Z,6.88
2022-10-09T03:22:35.126Z,7.47
2022-10-09T03:25:01.740Z,7.60
2022-10-09T03:27:28.291Z,6.28
2022-10-09T03:29:54.877Z,6.13
2022-10-09T03:32:21.579Z,6.55
2022-10-09T03:34:48.205Z,6.20
2022-10-09T03:37:14.769Z,6.43
2022-10-09T03:39:41.396Z,5.88
2022-10-09T03:42:07.989Z,5.38
2022-10-09T03:44:34.598Z,5.45
2022-10-09T03:47:01.257Z,5.50
2022-10-09T03:49:27.902Z,6.13
2022-10-09T03:51:54.478Z,5.10
2022-10-09T03:54:21.126Z,6.70
2022-10-09T03:56:47.735Z,5.90
2022-10-09T03:59:14.326Z,5.80
2022-10-09T04:01:40.912Z,5.65
2022-10-09T04:04:07.468Z,5.60
2022-10-09T04:06:34.085Z,5.75
2022-10-09T04:09:01.368Z,5.35
2022-10-09T04:11:27.942Z,4.70
2022-10-09T04:13:54.547Z,6.00
2022-10-09T04:16:21.165Z,5.13
2022-10-09T04:18:48.027Z,5.30
2022-10-09T04:21:14.694Z,5.13
2022-10-09T04:23:41.287Z,5.63
2022-10-09T04:26:07.924Z,5.75
2022-10-09T04:28:34.575Z,5.65
2022-10-09T04:31:01.768Z,4.80
2022-10-09T04:33:28.344Z,5.32
2022-10-09T04:35:55.433Z,5.93
2022-10-09T04:38:22.405Z,5.50
2022-10-09T04:41:02.250Z,6.55
2022-10-09T04:43:28.968Z,5.80
2022-10-09T04:45:55.911Z,5.97
2022-10-09T04:48:22.930Z,5.75
2022-10-09T04:50:49.577Z,6.00
2022-10-09T04:53:16.212Z,6.10
2022-10-09T04:55:43.437Z,7.13
2022-10-09T04:58:10.505Z,6.28
2022-10-09T05:00:43.785Z,6.43
2022-10-09T05:03:10.891Z,5.28
2022-10-09T05:05:37.736Z,5.95
2022-10-09T05:08:04.490Z,6.18
2022-10-09T05:10:34.184Z,6.00
2022-10-09T05:13:01.237Z,6.13
2022-10-09T05:15:27.906Z,6.78
2022-10-09T05:17:54.480Z,6.60
2022-10-09T05:20:21.140Z,6.10
2022-10-09T05:22:48.274Z,6.10
2022-10-09T05:25:15.331Z,6.15
2022-10-09T05:27:41.919Z,5.60
2022-10-09T05:30:09.447Z,6.03
2022-10-09T05:32:36.158Z,5.35
2022-10-09T05:35:04.499Z,6.10
2022-10-09T05:37:31.136Z,5.32
2022-10-09T05:39:57.715Z,5.28
2022-10-09T05:42:24.246Z,5.85
2022-10-09T05:44:50.828Z,5.38
2022-10-09T05:47:18.904Z,5.57
2022-10-09T05:49:45.536Z,5.40
2022-10-09T05:52:12.079Z,5.25
2022-10-09T05:54:38.731Z,5.28
2022-10-09T05:57:05.366Z,5.47
2022-10-09T05:59:31.962Z,6.03
2022-10-09T06:01:59.273Z,5.45
2022-10-09T06:04:25.934Z,5.45
2022-10-09T06:06:52.758Z,5.35
2022-10-09T06:09:25.511Z,6.65
2022-10-09T06:11:53.472Z,5.32
2022-10-09T06:14:23.157Z,5.82
2022-10-09T06:16:50.199Z,6.25
2022-10-09T06:19:17.657Z,5.63
2022-10-09T06:21:45.435Z,6.80
2022-10-09T06:24:27.338Z,6.40
2022-10-09T06:26:55.167Z,5.60
2022-10-09T06:29:21.879Z,5.78
2022-10-09T06:31:48.462Z,6.18
2022-10-09T06:34:15.042Z,6.90
2022-10-09T06:36:41.612Z,5.95
2022-10-09T06:39:11.061Z,6.50
2022-10-09T06:41:37.748Z,5.75
2022-10-09T06:44:05.825Z,6.53
2022-10-09T06:46:34.614Z,5.93
2022-10-09T06:49:01.774Z,5.65
2022-10-09T06:51:28.960Z,6.40
2022-10-09T06:53:57.027Z,7.07
2022-10-09T06:56:25.764Z,9.85
2022-10-09T06:58:52.390Z,9.63
2022-10-09T07:01:35.024Z,8.40
2022-10-09T07:04:07.330Z,9.25
2022-10-09T07:06:37.121Z,9.07
2022-10-09T07:09:06.026Z,7.95
2022-10-09T07:11:37.416Z,7.95
2022-10-09T07:14:05.852Z,7.38
2022-10-09T07:16:34.608Z,7.35
2022-10-09T07:19:03.719Z,7.95
2022-10-09T07:21:30.341Z,7.57
2022-10-09T07:23:59.261Z,7.57
2022-10-09T07:26:28.093Z,6.78
2022-10-09T07:28:54.821Z,6.45
2022-10-09T07:31:21.541Z,7.65
2022-10-09T07:33:51.488Z,7.25
2022-10-09T07:36:18.499Z,7.85
2022-10-09T07:38:49.083Z,7.38
2022-10-09T07:41:15.665Z,7.47
2022-10-09T07:43:42.718Z,7.38
2022-10-09T07:46:14.517Z,6.55
2022-10-09T07:48:41.405Z,6.53
2022-10-09T07:51:10.154Z,6.35
2022-10-09T07:53:37.102Z,5.93
2022-10-09T07:56:04.663Z,6.20
2022-10-09T07:58:31.683Z,6.68
2022-10-09T08:01:04.495Z,6.00
2022-10-09T08:03:31.071Z,6.25
2022-10-09T08:05:58.038Z,5.43
2022-10-09T08:08:24.698Z,5.47
2022-10-09T08:10:51.324Z,5.13
2022-10-09T08:13:17.901Z,6.07
2022-10-09T08:15:44.912Z,5.32
2022-10-09T08:18:11.762Z,5.03
2022-10-09T08:20:39.003Z,5.32
2022-10-09T08:23:05.670Z,4.10
2022-10-09T08:25:36.412Z,4.13
2022-10-09T08:28:03.518Z,4.60
2022-10-09T08:30:30.350Z,4.85
2022-10-09T08:32:56.905Z,4.07
2022-10-09T08:35:23.576Z,4.35
2022-10-09T08:37:50.344Z,4.20
2022-10-09T08:40:22.271Z,3.97
2022-10-09T08:43:02.999Z,3.38
2022-10-09T08:45:29.727Z,3.30
2022-10-09T08:47:59.021Z,3.63
2022-10-09T08:50:30.703Z,3.55
2022-10-09T08:53:13.439Z,3.65
2022-10-09T08:55:59.253Z,3.70
2022-10-09T08:58:35.792Z,3.47
2022-10-09T09:01:23.732Z,3.35
2022-10-09T09:04:12.106Z,3.35
2022-10-09T09:07:07.524Z,3.10
2022-10-09T09:09:59.066Z,2.90
2022-10-09T09:12:25.554Z,2.72
2022-10-09T09:15:17.304Z,2.97
2022-10-09T09:17:54.893Z,2.65
2022-10-09T09:20:29.400Z,2.30
2022-10-09T09:22:56.012Z,2.20
2022-10-09T09:25:34.984Z,2.00
2022-10-09T09:28:20.727Z,2.35
2022-10-09T09:30:55.530Z,2.15
2022-10-09T09:33:36.224Z,1.55
2022-10-09T09:36:12.357Z,2.10
2022-10-09T09:38:54.751Z,2.30
2022-10-09T09:41:25.512Z,2.03
2022-10-09T09:43:52.082Z,2.53
2022-10-09T09:46:20.608Z,2.60
2022-10-09T09:48:48.863Z,2.42
2022-10-09T09:51:28.604Z,1.65
2022-10-09T09:54:00.839Z,1.73
2022-10-09T09:57:12.069Z,2.55
2022-10-09T09:59:43.160Z,1.73
2022-10-09T10:02:17.822Z,1.58
2022-10-09T10:04:52.618Z,1.73
2022-10-09T10:07:36.696Z,1.90
2022-10-09T10:10:20.970Z,1.58
2022-10-09T10:12:55.712Z,1.35
2022-10-09T10:15:27.661Z,1.55
2022-10-09T10:18:04.519Z,1.17
2022-10-09T10:20:33.124Z,1.40
2022-10-09T10:23:00.573Z,1.30
2022-10-09T10:25:31.552Z,1.23
2022-10-09T10:28:07.482Z,1.20
2022-10-09T10:30:34.378Z,1.52
2022-10-09T10:33:08.209Z,1.63
2022-10-09T10:35:37.054Z,1.05
2022-10-09T10:38:19.853Z,1.20
2022-10-09T10:40:47.744Z,1.30
2022-10-09T10:43:35.396Z,1.65
2022-10-09T10:46:25.579Z,1.27
2022-10-09T10:48:52.343Z,1.30
2022-10-09T10:51:39.984Z,1.25
2022-10-09T10:54:51.507Z,1.27
2022-10-09T10:57:21.959Z,0.90
2022-10-09T11:00:06.450Z,0.90
2022-10-09T11:02:42.331Z,1.15
2022-10-09T11:05:34.924Z,1.00
2022-10-09T11:08:25.843Z,1.25
2022-10-09T11:11:04.595Z,1.23
2022-10-09T11:13:40.270Z,1.10
2022-10-09T11:16:16.244Z,1.17
2022-10-09T11:19:03.697Z,1.05
2022-10-09T11:21:49.035Z,1.20
2022-10-09T11:24:29.767Z,1.38
2022-10-09T11:27:30.559Z,1.15
2022-10-09T11:30:06.076Z,0.90
2022-10-09T11:32:50.747Z,0.90
2022-10-09T11:35:25.109Z,1.20
2022-10-09T11:38:21.649Z,1.27
2022-10-09T11:40:48.470Z,1.05
2022-10-09T11:43:27.240Z,1.00
2022-10-09T11:46:05.369Z,0.90
2022-10-09T11:48:38.381Z,1.08
2022-10-09T11:51:14.446Z,1.00
2022-10-09T11:53:41.217Z,1.23
2022-10-09T11:56:19.968Z,1.50
2022-10-09T11:59:00.791Z,1.10
2022-10-09T12:01:35.949Z,1.08
2022-10-09T12:04:32.314Z,1.23
2022-10-09T12:07:09.437Z,1.13
2022-10-09T12:09:36.938Z,1.20
2022-10-09T12:12:10.304Z,1.13
2022-10-09T12:14:37.902Z,1.00
2022-10-09T12:17:22.797Z,0.90
2022-10-09T12:19:58.563Z,0.95
2022-10-09T12:22:30.451Z,1.10
2022-10-09T12:24:58.997Z,0.90
2022-10-09T12:27:34.468Z,0.90
2022-10-09T12:30:13.329Z,0.90
2022-10-09T12:32:44.911Z,0.80
2022-10-09T12:35:30.043Z,1.00
2022-10-09T12:37:56.621Z,0.80
2022-10-09T12:40:31.432Z,0.93
2022-10-09T12:42:58.948Z,0.93
2022-10-09T12:45:27.672Z,1.00
2022-10-09T12:47:54.229Z,1.00
2022-10-09T12:50:31.742Z,1.00
2022-10-09T12:53:00.197Z,0.80
2022-10-09T12:55:32.194Z,0.65
2022-10-09T12:58:24.313Z,0.88
2022-10-09T13:00:52.559Z,1.13
2022-10-09T13:03:40.181Z,0.60
2022-10-09T13:06:17.663Z,0.80
2022-10-09T13:08:44.485Z,0.90
2022-10-09T13:11:24.188Z,1.10
2022-10-09T13:13:51.439Z,1.10
2022-10-09T13:16:18.212Z,1.00
2022-10-09T13:18:55.966Z,0.95
2022-10-09T13:21:35.199Z,0.85
2022-10-09T13:24:13.326Z,0.93
2022-10-09T13:26:41.255Z,1.02
2022-10-09T13:29:08.250Z,0.80
2022-10-09T13:31:36.676Z,1.00
2022-10-09T13:34:13.184Z,0.80
2022-10-09T13:36:39.881Z,0.90
2022-10-09T13:39:06.629Z,0.73
2022-10-09T13:41:33.258Z,1.10
2022-10-09T13:43:59.837Z,1.05
2022-10-09T13:46:26.450Z,0.95
2022-10-09T13:48:53.083Z,1.00
2022-10-09T13:51:19.670Z,1.10
2022-10-09T13:53:46.235Z,1.10
2022-10-09T13:56:12.873Z,0.80
2022-10-09T13:58:39.492Z,1.17
2022-10-09T14:01:06.193Z,0.90
2022-10-09T14:03:32.847Z,1.20
2022-10-09T14:06:00.794Z,0.90
2022-10-09T14:08:27.399Z,1.00
2022-10-09T14:10:54.564Z,1.10
2022-10-09T14:13:21.845Z,1.00
2022-10-09T14:15:48.479Z,1.33
2022-10-09T14:18:15.067Z,0.95
2022-10-09T14:20:41.653Z,1.00
2022-10-09T14:23:09.285Z,1.38
2022-10-09T14:25:36.022Z,1.13
2022-10-09T14:28:03.153Z,1.35
2022-10-09T14:30:29.864Z,1.42
2022-10-09T14:32:56.646Z,1.17
2022-10-09T14:35:23.320Z,0.90
2022-10-09T14:37:49.932Z,1.00
2022-10-09T14:40:16.787Z,1.00
2022-10-09T14:42:43.391Z,1.08
2022-10-09T14:45:10.540Z,1.10
2022-10-09T14:47:37.180Z,1.10
2022-10-09T14:50:04.025Z,1.40
2022-10-09T14:52:30.678Z,1.23
2022-10-09T14:54:57.277Z,1.30
2022-10-09T14:57:23.850Z,1.20
2022-10-09T14:59:50.437Z,1.10
2022-10-09T15:02:17.044Z,1.77
2022-10-09T15:04:43.678Z,1.10
2022-10-09T15:07:10.263Z,1.05
2022-10-09T15:09:36.853Z,1.50
2022-10-09T15:12:03.580Z,1.13
2022-10-09T15:14:30.176Z,1.25
2022-10-09T15:16:56.733Z,1.20
2022-10-09T15:19:23.325Z,1.40
2022-10-09T15:21:49.897Z,1.45
2022-10-09T15:24:16.487Z,0.95
2022-10-09T15:26:43.108Z,1.20
2022-10-09T15:29:09.738Z,1.20
2022-10-09T15:31:40.813Z,1.35
2022-10-09T15:34:08.113Z,1.08
2022-10-09T15:36:37.248Z,1.20
2022-10-09T15:39:06.143Z,1.38
2022-10-09T15:41:35.500Z,1.27
2022-10-09T15:44:13.885Z,1.10
2022-10-09T15:46:40.507Z,1.10
2022-10-09T15:49:08.143Z,1.10
2022-10-09T15:51:35.021Z,1.10
2022-10-09T15:54:02.099Z,1.33
2022-10-09T15:56:29.146Z,1.48
2022-10-09T15:58:56.321Z,1.90
2022-10-09T16:01:23.342Z,1.50
2022-10-09T16:03:50.411Z,2.05
2022-10-09T16:06:18.998Z,2.03
2022-10-09T16:08:46.294Z,1.90
2022-10-09T16:11:14.215Z,2.15
2022-10-09T16:13:42.428Z,2.08
2022-10-09T16:16:11.245Z,2.10
2022-10-09T16:18:37.816Z,2.28
2022-10-09T16:21:09.058Z,1.80
2022-10-09T16:23:35.709Z,2.20
2022-10-09T16:26:03.110Z,2.22
2022-10-09T16:28:29.933Z,2.30
2022-10-09T16:30:56.611Z,2.30
2022-10-09T16:33:23.361Z,2.33
2022-10-09T16:35:49.962Z,2.22
2022-10-09T16:38:17.038Z,2.15
2022-10-09T16:41:03.779Z,2.70
2022-10-09T16:43:33.870Z,2.80
2022-10-09T16:46:15.560Z,2.25
2022-10-09T16:48:42.400Z,2.80
2022-10-09T16:51:10.831Z,2.42
2022-10-09T16:53:37.532Z,2.85
2022-10-09T16:56:12.417Z,2.17
2022-10-09T16:58:39.969Z,2.97
2022-10-09T17:01:09.874Z,3.13
2022-10-09T17:03:40.362Z,2.70
2022-10-09T17:06:08.884Z,2.70
2022-10-09T17:08:35.552Z,3.30
2022-10-09T17:11:02.289Z,2.70
2022-10-09T17:13:28.942Z,2.70
2022-10-09T17:15:55.501Z,4.03
2022-10-09T17:18:22.132Z,3.53
2022-10-09T17:20:48.777Z,2.95
2022-10-09T17:23:15.345Z,3.15
2022-10-09T17:25:43.345Z,2.90
2022-10-09T17:28:10.031Z,2.65
2022-10-09T17:30:40.703Z,3.45
2022-10-09T17:33:07.474Z,3.22
2022-10-09T17:35:38.240Z,3.47
2022-10-09T17:38:04.826Z,3.17
2022-10-09T17:40:31.669Z,3.50
2022-10-09T17:42:58.285Z,3.00
2022-10-09T17:45:24.917Z,3.47
2022-10-09T17:47:51.511Z,2.90
2022-10-09T17:50:18.118Z,3.40
2022-10-09T17:52:44.905Z,2.85
2022-10-09T17:55:11.487Z,2.90
2022-10-09T17:57:38.084Z,2.65
2022-10-09T18:00:05.387Z,3.30
2022-10-09T18:02:31.936Z,2.88
2022-10-09T18:04:59.220Z,3.50
2022-10-09T18:07:25.795Z,3.40
2022-10-09T18:09:52.687Z,2.95
2022-10-09T18:12:19.373Z,3.20
2022-10-09T18:14:46.169Z,3.53
2022-10-09T18:17:12.732Z,3.30
2022-10-09T18:19:39.291Z,3.58
2022-10-09T18:22:05.800Z,3.58
2022-10-09T18:24:32.395Z,4.40
2022-10-09T18:26:58.959Z,4.43
2022-10-09T18:29:25.645Z,4.38
2022-10-09T18:31:55.642Z,3.50
2022-10-09T18:34:23.107Z,3.97
2022-10-09T18:36:51.815Z,3.38
2022-10-09T18:39:19.231Z,4.07
2022-10-09T18:41:45.892Z,3.67
2022-10-09T18:44:17.659Z,3.72
2022-10-09T18:46:56.022Z,3.67
2022-10-09T18:49:25.027Z,3.33
2022-10-09T18:51:51.651Z,3.75
2022-10-09T18:54:18.582Z,4.28
2022-10-09T18:56:45.329Z,3.83
2022-10-09T18:59:15.411Z,3.78
2022-10-09T19:01:42.093Z,3.10
2022-10-09T19:04:08.739Z,4.60
2022-10-09T19:06:35.682Z,5.50
2022-10-09T19:09:02.439Z,4.32
2022-10-09T19:11:29.754Z,3.90
2022-10-09T19:13:59.712Z,4.35
2022-10-09T19:16:27.606Z,4.07
2022-10-09T19:18:55.204Z,5.00
2022-10-09T19:21:21.845Z,4.30
2022-10-09T19:23:49.272Z,4.82
2022-10-09T19:26:16.152Z,4.20
2022-10-09T19:28:43.005Z,4.57
2022-10-09T19:31:10.348Z,4.43
2022-10-09T19:33:38.014Z,3.85
2022-10-09T19:36:04.972Z,5.28
2022-10-09T19:38:31.705Z,4.03
2022-10-09T19:41:09.326Z,4.05
2022-10-09T19:43:36.299Z,4.03
2022-10-09T19:46:08.671Z,4.40
2022-10-09T19:48:35.786Z,4.53
2022-10-09T19:51:07.238Z,4.40
2022-10-09T19:53:34.634Z,4.32
2022-10-09T19:56:02.904Z,3.97
2022-10-09T19:58:30.188Z,3.70
2022-10-09T20:00:56.828Z,4.55
2022-10-09T20:03:23.405Z,4.10
2022-10-09T20:05:49.980Z,4.00
2022-10-09T20:08:16.567Z,4.78
2022-10-09T20:10:43.138Z,5.03
2022-10-09T20:13:09.776Z,5.07
2022-10-09T20:15:36.382Z,4.65
2022-10-09T20:18:03.033Z,4.45
2022-10-09T20:20:29.615Z,4.05
2022-10-09T20:22:56.212Z,4.45
2022-10-09T20:25:24.406Z,4.28
2022-10-09T20:27:51.001Z,4.18
2022-10-09T20:30:17.621Z,6.63
2022-10-09T20:32:44.209Z,7.82
2022-10-09T20:35:11.034Z,7.05
2022-10-09T20:37:37.662Z,4.55
2022-10-09T20:40:04.573Z,4.80
2022-10-09T20:42:31.219Z,3.88
2022-10-09T20:44:57.838Z,4.13
2022-10-09T20:47:24.406Z,4.07
2022-10-09T20:49:50.976Z,4.05
2022-10-09T20:52:17.600Z,3.83
2022-10-09T20:54:44.181Z,4.10
2022-10-09T20:57:10.768Z,3.97
2022-10-09T20:59:37.366Z,4.40
2022-10-09T21:02:03.959Z,3.78
2022-10-09T21:04:31.601Z,3.30
2022-10-09T21:06:58.244Z,3.42
2022-10-09T21:09:27.535Z,4.13
2022-10-09T21:11:57.516Z,4.00
2022-10-09T21:14:24.095Z,4.68
2022-10-09T21:16:50.713Z,4.60
2022-10-09T21:19:17.513Z,5.20
2022-10-09T21:21:48.680Z,4.50
2022-10-09T21:24:17.377Z,4.40
2022-10-09T21:26:46.983Z,4.28
2022-10-09T21:29:14.051Z,4.63
2022-10-09T21:31:40.631Z,4.70
2022-10-09T21:34:07.218Z,4.20
2022-10-09T21:37:16.058Z,5.07
2022-10-09T21:39:34.363Z,4.32
2022-10-09T21:42:00.949Z,4.63
2022-10-09T21:44:27.733Z,5.20
2022-10-09T21:46:54.422Z,4.55
2022-10-09T21:49:23.615Z,4.70
2022-10-09T21:51:50.383Z,4.97
2022-10-09T21:54:17.153Z,5.38
2022-10-09T21:56:43.789Z,5.22
2022-10-09T21:59:10.436Z,5.32
2022-10-09T22:01:37.047Z,5.38
2022-10-09T22:04:03.964Z,5.43
2022-10-09T22:06:30.557Z,5.43
2022-10-09T22:08:58.421Z,5.57
2022-10-09T22:11:24.967Z,4.97
2022-10-09T22:13:51.550Z,5.32
2022-10-09T22:16:18.123Z,5.40
2022-10-09T22:18:45.513Z,5.15
2022-10-09T22:21:13.929Z,4.97
2022-10-09T22:23:40.871Z,4.93
2022-10-09T22:26:13.971Z,4.60
2022-10-09T22:31:13.323Z,4.70
2022-10-09T22:33:40.265Z,4.45
2022-10-09T22:36:12.468Z,4.82
2022-10-09T22:38:39.511Z,4.13
2022-10-09T22:41:08.492Z,4.22
2022-10-09T22:43:35.557Z,4.60
2022-10-09T22:46:22.348Z,5.22
2022-10-09T22:48:49.674Z,5.03
2022-10-09T22:51:17.417Z,5.03
2022-10-09T22:53:44.487Z,4.90
2022-10-09T22:56:22.599Z,4.78
2022-10-09T22:58:51.774Z,5.03
2022-10-09T23:01:25.089Z,4.55
2022-10-09T23:03:51.746Z,4.55
2022-10-09T23:06:19.952Z,4.40
2022-10-09T23:08:47.996Z,4.72
2022-10-09T23:11:15.600Z,5.13
2022-10-09T23:13:42.317Z,5.80
2022-10-09T23:16:10.431Z,4.95
2022-10-09T23:18:37.230Z,4.57
2022-10-09T23:21:05.593Z,5.30
2022-10-09T23:23:34.034Z,5.18
2022-10-09T23:26:07.482Z,5.15
2022-10-09T23:28:34.694Z,4.82
2022-10-09T23:31:09.397Z,4.70
2022-10-09T23:33:36.183Z,4.82
2022-10-09T23:36:03.325Z,5.40
2022-10-09T23:38:30.025Z,5.68
2022-10-09T23:41:01.363Z,5.43
2022-10-09T23:43:28.948Z,4.72
2022-10-09T23:45:56.379Z,6.00
2022-10-09T23:48:22.981Z,4.82
2022-10-09T23:50:50.267Z,5.15
2022-10-09T23:53:17.077Z,5.10
2022-10-09T23:55:44.444Z,5.85
2022-10-09T23:58:11.687Z,4.93
